createdAt,value
2018-05-26T00:00:31.985Z,101504.70
2018-05-26T00:03:34.515Z,101508.31
2018-05-26T00:06:38.057Z,101504.55
2018-05-26T00:09:40.576Z,101513.39
2018-05-26T00:12:43.148Z,101513.01
2018-05-26T00:15:45.650Z,101510.36
2018-05-26T00:18:48.168Z,101517.17
2018-05-26T00:21:50.679Z,101515.02
2018-05-26T00:24:53.986Z,101517.17
2018-05-26T00:27:56.486Z,101525.23
2018-05-26T00:30:59.183Z,101524.70
2018-05-26T00:34:01.758Z,101510.28
2018-05-26T00:37:04.282Z,101507.66
2018-05-26T00:40:06.802Z,101506.62
2018-05-26T00:43:09.292Z,101499.98
2018-05-26T00:46:11.778Z,101494.92
2018-05-26T00:49:14.294Z,101500.05
2018-05-26T00:52:16.855Z,101508.61
2018-05-26T00:55:19.354Z,101508.80
2018-05-26T00:58:21.849Z,101508.87
2018-05-26T01:01:24.408Z,101509.70
2018-05-26T01:04:26.895Z,101509.24
2018-05-26T01:07:29.368Z,101513.02
2018-05-26T01:10:31.927Z,101512.75
2018-05-26T01:13:34.387Z,101506.95
2018-05-26T01:16:36.867Z,101506.16
2018-05-26T01:19:39.431Z,101517.22
2018-05-26T01:22:41.924Z,101522.00
2018-05-26T01:25:44.395Z,101523.55
2018-05-26T01:28:46.879Z,101522.81
2018-05-26T01:31:49.374Z,101519.36
2018-05-26T01:34:51.991Z,101527.00
2018-05-26T01:37:54.496Z,101531.93
2018-05-26T01:40:56.995Z,101526.81
2018-05-26T01:43:59.511Z,101525.17
2018-05-26T01:47:02.009Z,101525.58
2018-05-26T01:50:04.530Z,101521.18
2018-05-26T01:53:07.015Z,101522.09
2018-05-26T01:56:09.507Z,101519.83
2018-05-26T01:59:11.982Z,101520.88
2018-05-26T02:02:14.463Z,101515.11
2018-05-26T02:05:16.989Z,101516.55
2018-05-26T02:08:19.477Z,101524.57
2018-05-26T02:11:21.966Z,101525.20
2018-05-26T02:14:24.466Z,101529.39
2018-05-26T02:17:26.948Z,101528.16
2018-05-26T02:20:29.430Z,101521.78
2018-05-26T02:23:31.945Z,101525.75
2018-05-26T02:26:34.445Z,101521.42
2018-05-26T02:29:36.926Z,101521.59
2018-05-26T02:32:39.404Z,101524.69
2018-05-26T02:35:41.902Z,101531.09
2018-05-26T02:38:44.420Z,101527.95
2018-05-26T02:41:46.899Z,101526.80
2018-05-26T02:44:49.403Z,101525.62
2018-05-26T02:47:51.891Z,101516.62
2018-05-26T02:50:54.373Z,101522.27
2018-05-26T02:53:56.875Z,101519.22
2018-05-26T02:56:59.393Z,101520.22
2018-05-26T03:00:01.888Z,101514.78
2018-05-26T03:03:04.390Z,101515.42
2018-05-26T03:06:12.453Z,101513.55
2018-05-26T03:09:20.441Z,101518.11
2018-05-26T03:12:28.592Z,101520.92
2018-05-26T03:15:31.094Z,101517.72
2018-05-26T03:18:33.584Z,101522.93
2018-05-26T03:21:36.077Z,101524.03
2018-05-26T03:24:38.566Z,101527.64
2018-05-26T03:27:41.039Z,101531.37
2018-05-26T03:30:43.542Z,101534.13
2018-05-26T03:33:46.051Z,101532.89
2018-05-26T03:36:48.526Z,101540.36
2018-05-26T03:39:51.014Z,101538.63
2018-05-26T03:42:53.475Z,101546.95
2018-05-26T03:45:55.982Z,101546.13
2018-05-26T03:48:58.498Z,101550.15
2018-05-26T03:52:00.978Z,101553.84
2018-05-26T03:58:58.359Z,101550.16
2018-05-26T04:02:00.861Z,101548.80
2018-05-26T04:05:03.355Z,101555.14
2018-05-26T04:08:05.859Z,101550.62
2018-05-26T04:11:08.353Z,101558.84
2018-05-26T04:14:10.854Z,101558.98
2018-05-26T04:17:13.324Z,101564.23
2018-05-26T04:20:15.804Z,101568.56
2018-05-26T04:23:18.317Z,101578.22
2018-05-26T04:26:20.799Z,101578.14
2018-05-26T04:29:23.321Z,101567.70
2018-05-26T04:32:25.821Z,101578.05
2018-05-26T04:35:28.359Z,101576.94
2018-05-26T04:38:30.847Z,101587.31
2018-05-26T04:41:33.365Z,101592.66
2018-05-26T04:44:36.030Z,101591.18
2018-05-26T04:47:38.551Z,101592.34
2018-05-26T04:50:41.066Z,101597.75
2018-05-26T04:53:43.575Z,101595.40
2018-05-26T04:56:46.109Z,101592.13
2018-05-26T04:59:48.590Z,101585.82
2018-05-26T05:02:51.092Z,101598.75
2018-05-26T05:05:53.583Z,101597.27
2018-05-26T05:08:56.053Z,101602.53
2018-05-26T05:11:58.526Z,101609.80
2018-05-26T05:15:01.046Z,101603.61
2018-05-26T05:18:03.582Z,101605.59
2018-05-26T05:21:06.103Z,101607.47
2018-05-26T05:24:08.636Z,101603.19
2018-05-26T05:27:11.126Z,101605.61
2018-05-26T05:30:13.653Z,101603.83
2018-05-26T05:33:16.137Z,101603.69
2018-05-26T05:36:18.628Z,101610.48
2018-05-26T05:39:21.232Z,101613.89
2018-05-26T05:42:23.820Z,101619.84
2018-05-26T05:45:26.333Z,101613.16
2018-05-26T05:48:28.848Z,101619.29
2018-05-26T05:51:31.365Z,101612.59
2018-05-26T05:54:33.853Z,101609.34
2018-05-26T05:57:36.449Z,101611.17
2018-05-26T06:00:38.963Z,101611.57
2018-05-26T06:03:41.480Z,101621.30
2018-05-26T06:06:44.019Z,101623.20
2018-05-26T06:09:46.523Z,101623.76
2018-05-26T06:12:49.089Z,101626.34
2018-05-26T06:15:51.604Z,101624.36
2018-05-26T06:18:54.118Z,101625.17
2018-05-26T06:21:56.644Z,101621.14
2018-05-26T06:24:59.886Z,101627.74
2018-05-26T06:28:02.467Z,101625.66
2018-05-26T06:31:05.200Z,101629.25
2018-05-26T06:34:07.704Z,101628.20
2018-05-26T06:37:10.220Z,101627.84
2018-05-26T06:40:13.571Z,101621.51
2018-05-26T06:43:16.090Z,101622.98
2018-05-26T06:46:18.674Z,101618.83
2018-05-26T06:49:21.215Z,101619.45
2018-05-26T06:52:24.705Z,101615.72
2018-05-26T07:20:23.648Z,101612.33
2018-05-26T07:23:26.249Z,101607.98
2018-05-26T07:26:28.805Z,101612.69
2018-05-26T07:29:31.406Z,101609.42
2018-05-26T07:32:33.935Z,101607.42
2018-05-26T07:35:36.446Z,101609.37
2018-05-26T07:38:38.942Z,101614.34
2018-05-26T07:41:41.458Z,101605.48
2018-05-26T07:44:43.934Z,101604.38
2018-05-26T07:47:46.478Z,101597.29
2018-05-26T07:50:49.008Z,101592.80
2018-05-26T07:53:51.530Z,101599.91
2018-05-26T07:56:54.063Z,101597.00
2018-05-26T07:59:56.558Z,101596.59
2018-05-26T08:02:59.077Z,101597.17
2018-05-26T08:06:01.615Z,101602.67
2018-05-26T08:09:04.142Z,101603.73
2018-05-26T08:12:06.731Z,101605.84
2018-05-26T08:15:09.295Z,101601.81
2018-05-26T08:18:11.812Z,101607.15
2018-05-26T08:21:14.373Z,101603.09
2018-05-26T08:24:16.920Z,101605.33
2018-05-26T08:27:19.492Z,101604.69
2018-05-26T08:30:21.979Z,101604.96
2018-05-26T08:33:24.496Z,101602.30
2018-05-26T08:36:26.981Z,101598.86
2018-05-26T08:39:29.537Z,101601.98
2018-05-26T08:42:32.032Z,101596.98
2018-05-26T08:45:34.584Z,101602.53
2018-05-26T08:48:37.090Z,101604.97
2018-05-26T08:51:39.631Z,101602.87
2018-05-26T08:54:42.168Z,101607.16
2018-05-26T08:57:44.680Z,101609.03
2018-05-26T09:00:47.192Z,101617.07
2018-05-26T09:03:49.718Z,101615.37
2018-05-26T09:06:52.216Z,101613.91
2018-05-26T09:09:54.750Z,101614.84
2018-05-26T09:12:57.444Z,101615.97
2018-05-26T09:16:00.099Z,101610.92
2018-05-26T09:19:02.644Z,101605.28
2018-05-26T09:22:05.149Z,101602.66
2018-05-26T09:25:07.743Z,101604.17
2018-05-26T09:28:10.304Z,101599.48
2018-05-26T09:31:12.854Z,101609.56
2018-05-26T09:34:15.572Z,101603.95
2018-05-26T09:37:18.093Z,101602.30
2018-05-26T09:40:20.611Z,101598.52
2018-05-26T09:43:23.118Z,101596.87
2018-05-26T09:46:25.668Z,101598.97
2018-05-26T09:49:28.258Z,101595.09
2018-05-26T09:52:30.772Z,101595.47
2018-05-26T09:55:33.302Z,101594.26
2018-05-26T09:58:35.807Z,101593.05
2018-05-26T10:01:38.319Z,101586.35
2018-05-26T10:04:40.835Z,101589.69
2018-05-26T10:07:43.350Z,101581.39
2018-05-26T10:10:45.875Z,101589.00
2018-05-26T10:13:48.418Z,101581.85
2018-05-26T10:16:50.916Z,101579.80
2018-05-26T10:19:53.489Z,101580.86
2018-05-26T10:22:56.021Z,101566.63
2018-05-26T10:25:58.537Z,101578.96
2018-05-26T10:29:01.103Z,101576.20
2018-05-26T10:32:03.654Z,101564.81
2018-05-26T10:35:07.177Z,101563.56
2018-05-26T10:38:11.016Z,101575.30
2018-05-26T10:41:13.528Z,101567.11
2018-05-26T10:44:16.996Z,101565.31
2018-05-26T10:47:19.528Z,101565.77
2018-05-26T10:50:22.094Z,101564.18
2018-05-26T10:53:24.617Z,101563.75
2018-05-26T10:56:27.164Z,101560.36
2018-05-26T10:59:29.758Z,101554.97
2018-05-26T11:02:33.185Z,101560.22
2018-05-26T11:05:35.723Z,101555.67
2018-05-26T11:08:38.256Z,101554.47
2018-05-26T11:11:40.723Z,101556.09
2018-05-26T11:14:43.315Z,101546.05
2018-05-26T11:17:46.012Z,101542.96
2018-05-26T11:20:48.368Z,101545.16
2018-05-26T11:23:50.870Z,101543.27
2018-05-26T11:26:53.665Z,101545.87
2018-05-26T11:29:56.175Z,101546.82
2018-05-26T11:32:59.633Z,101546.73
2018-05-26T11:36:02.209Z,101540.45
2018-05-26T11:39:05.294Z,101545.55
2018-05-26T11:42:07.860Z,101544.43
2018-05-26T11:45:10.386Z,101542.65
2018-05-26T11:48:12.893Z,101538.09
2018-05-26T11:51:15.425Z,101537.27
2018-05-26T11:54:17.981Z,101537.35
2018-05-26T11:57:20.531Z,101532.92
2018-05-26T12:00:24.141Z,101525.44
2018-05-26T12:03:26.672Z,101524.05
2018-05-26T12:06:29.203Z,101522.67
2018-05-26T12:09:31.842Z,101525.89
2018-05-26T12:12:34.426Z,101525.08
2018-05-26T12:15:36.939Z,101520.13
2018-05-26T12:18:39.469Z,101521.66
2018-05-26T12:21:42.040Z,101516.77
2018-05-26T12:24:44.577Z,101511.98
2018-05-26T12:27:47.135Z,101510.80
2018-05-26T12:30:49.662Z,101504.68
2018-05-26T12:33:52.174Z,101500.39
2018-05-26T12:36:54.685Z,101504.05
2018-05-26T12:39:57.214Z,101497.77
2018-05-26T12:42:59.802Z,101499.10
2018-05-26T12:46:02.300Z,101497.58
2018-05-26T12:49:04.861Z,101493.72
2018-05-26T12:52:07.431Z,101489.89
2018-05-26T12:55:09.968Z,101481.44
2018-05-26T12:58:12.479Z,101480.52
2018-05-26T13:01:16.226Z,101481.80
2018-05-26T13:04:18.716Z,101485.28
2018-05-26T13:07:21.262Z,101481.27
2018-05-26T13:10:23.927Z,101483.06
2018-05-26T13:13:26.460Z,101479.06
2018-05-26T13:16:30.038Z,101472.66
2018-05-26T13:19:32.546Z,101469.09
2018-05-26T13:22:35.098Z,101468.68
2018-05-26T13:25:37.649Z,101470.10
2018-05-26T13:28:40.172Z,101465.81
2018-05-26T13:31:42.696Z,101467.63
2018-05-26T13:34:45.285Z,101468.10
2018-05-26T13:37:47.807Z,101465.65
2018-05-26T13:40:50.400Z,101457.40
2018-05-26T13:43:52.912Z,101457.61
2018-05-26T13:46:55.606Z,101467.50
2018-05-26T13:49:58.187Z,101466.47
2018-05-26T13:53:00.711Z,101477.70
2018-05-26T13:56:03.291Z,101472.30
2018-05-26T13:59:05.793Z,101481.59
2018-05-26T14:02:08.339Z,101482.31
2018-05-26T14:05:10.922Z,101481.06
2018-05-26T14:08:13.490Z,101488.23
2018-05-26T14:11:16.047Z,101478.07
2018-05-26T14:14:18.598Z,101491.62
2018-05-26T14:17:21.199Z,101491.05
2018-05-26T14:20:23.697Z,101479.19
2018-05-26T14:23:26.261Z,101487.54
2018-05-26T14:26:28.864Z,101487.06
2018-05-26T14:29:31.622Z,101493.82
2018-05-26T14:32:34.177Z,101482.30
2018-05-26T14:35:36.784Z,101487.48
2018-05-26T14:38:39.349Z,101498.78
2018-05-26T14:41:41.949Z,101488.85
2018-05-26T14:44:44.485Z,101487.34
2018-05-26T14:47:47.064Z,101484.52
2018-05-26T14:50:49.624Z,101488.14
2018-05-26T14:53:52.208Z,101489.01
2018-05-26T14:56:54.831Z,101490.41
2018-05-26T14:59:57.417Z,101494.27
2018-05-26T15:02:59.960Z,101485.73
2018-05-26T15:06:02.535Z,101482.86
2018-05-26T15:09:06.078Z,101482.62
2018-05-26T15:12:08.692Z,101478.81
2018-05-26T15:15:11.235Z,101471.61
2018-05-26T15:18:13.791Z,101463.30
2018-05-26T15:21:16.345Z,101469.65
2018-05-26T15:24:18.916Z,101467.91
2018-05-26T15:27:21.436Z,101472.06
2018-05-26T15:30:24.031Z,101473.99
2018-05-26T15:33:26.594Z,101471.28
2018-05-26T15:36:29.132Z,101472.27
2018-05-26T15:39:31.636Z,101472.92
2018-05-26T15:42:34.247Z,101467.41
2018-05-26T15:45:36.908Z,101463.06
2018-05-26T15:48:39.429Z,101465.38
2018-05-26T15:51:41.987Z,101462.09
2018-05-26T15:54:44.562Z,101468.42
2018-05-26T15:57:47.715Z,101461.50
2018-05-26T16:00:50.279Z,101464.62
2018-05-26T16:03:52.824Z,101467.66
2018-05-26T16:06:55.524Z,101469.45
2018-05-26T16:09:58.053Z,101470.34
2018-05-26T16:13:00.704Z,101461.58
2018-05-26T16:16:03.230Z,101460.72
2018-05-26T16:19:05.864Z,101467.17
2018-05-26T16:22:08.447Z,101467.28
2018-05-26T16:25:11.159Z,101461.73
2018-05-26T16:28:13.712Z,101463.53
2018-05-26T16:31:16.272Z,101469.77
2018-05-26T16:34:19.626Z,101469.00
2018-05-26T16:37:22.190Z,101469.86
2018-05-26T16:40:24.770Z,101475.91
2018-05-26T16:43:27.297Z,101462.33
2018-05-26T16:46:30.157Z,101464.72
2018-05-26T16:49:32.677Z,101461.30
2018-05-26T16:52:35.201Z,101465.77
2018-05-26T16:55:37.824Z,101468.39
2018-05-26T16:58:40.457Z,101459.54
2018-05-26T17:01:43.078Z,101473.02
2018-05-26T17:04:45.603Z,101472.86
2018-05-26T17:07:49.197Z,101469.92
2018-05-26T17:10:51.733Z,101470.52
2018-05-26T17:13:54.304Z,101469.49
2018-05-26T17:16:56.868Z,101465.23
2018-05-26T17:19:59.442Z,101467.89
2018-05-26T17:23:02.055Z,101469.67
2018-05-26T17:26:04.662Z,101468.39
2018-05-26T17:29:07.312Z,101469.75
2018-05-26T17:32:09.865Z,101465.59
2018-05-26T17:35:12.396Z,101471.13
2018-05-26T17:38:15.558Z,101473.57
2018-05-26T17:41:18.141Z,101476.47
2018-05-26T17:44:20.794Z,101480.81
2018-05-26T17:47:23.389Z,101477.06
2018-05-26T17:50:26.039Z,101477.50
2018-05-26T17:53:29.424Z,101479.39
2018-05-26T17:56:32.051Z,101475.44
2018-05-26T17:59:34.648Z,101479.55
2018-05-26T18:02:37.190Z,101483.20
2018-05-26T18:05:40.800Z,101482.45
2018-05-26T18:08:43.483Z,101483.36
2018-05-26T18:11:46.794Z,101492.22
2018-05-26T18:14:49.583Z,101489.50
2018-05-26T18:17:52.250Z,101492.86
2018-05-26T18:20:55.101Z,101489.42
2018-05-26T18:23:57.883Z,101498.88
2018-05-26T18:27:00.626Z,101494.99
2018-05-26T18:30:03.421Z,101497.54
2018-05-26T18:33:06.215Z,101496.41
2018-05-26T18:36:09.055Z,101497.92
2018-05-26T18:39:12.640Z,101504.06
2018-05-26T18:42:15.247Z,101507.14
2018-05-26T18:45:17.934Z,101504.44
2018-05-26T18:48:20.603Z,101508.27
2018-05-26T18:51:25.481Z,101508.03
2018-05-26T18:54:28.540Z,101512.28
2018-05-26T18:57:31.218Z,101511.95
2018-05-26T19:00:33.794Z,101512.81
2018-05-26T19:03:36.687Z,101514.82
2018-05-26T19:06:39.453Z,101517.92
2018-05-26T19:09:42.093Z,101524.56
2018-05-26T19:12:46.674Z,101530.38
2018-05-26T19:15:50.152Z,101542.73
2018-05-26T19:18:54.219Z,101539.11
2018-05-26T19:21:57.010Z,101542.69
2018-05-26T19:24:59.595Z,101539.44
2018-05-26T19:28:02.258Z,101536.44
2018-05-26T19:31:04.869Z,101540.17
2018-05-26T19:34:09.472Z,101539.92
2018-05-26T19:37:12.732Z,101547.33
2018-05-26T19:40:17.019Z,101556.30
2018-05-26T19:43:20.891Z,101553.29
2018-05-26T19:46:24.050Z,101554.84
2018-05-26T19:49:27.669Z,101555.77
2018-05-26T19:52:31.832Z,101558.89
2018-05-26T19:55:35.582Z,101557.86
2018-05-26T19:58:39.035Z,101559.45
2018-05-26T20:01:41.835Z,101551.98
2018-05-26T20:04:45.658Z,101553.59
2018-05-26T20:07:49.439Z,101551.66
2018-05-26T20:10:53.345Z,101541.94
2018-05-26T20:13:57.248Z,101542.37
2018-05-26T20:17:01.731Z,101542.81
2018-05-26T20:20:04.378Z,101544.80
2018-05-26T20:23:06.937Z,101539.47
2018-05-26T20:26:09.486Z,101543.30
2018-05-26T20:29:12.113Z,101537.58
2018-05-26T20:32:14.738Z,101538.83
2018-05-26T20:35:17.348Z,101531.79
2018-05-26T20:38:19.971Z,101532.81
2018-05-26T20:41:22.573Z,101535.83
2018-05-26T20:44:25.232Z,101534.86
2018-05-26T20:47:29.509Z,101533.45
2018-05-26T20:50:32.300Z,101536.25
2018-05-26T20:53:42.279Z,101538.56
2018-05-26T20:56:46.378Z,101538.52
2018-05-26T20:59:49.277Z,101542.12
2018-05-26T21:02:56.447Z,101537.97
2018-05-26T21:05:59.195Z,101545.14
2018-05-26T21:09:01.872Z,101548.02
2018-05-26T21:12:04.517Z,101545.05
2018-05-26T21:15:07.258Z,101540.11
2018-05-26T21:18:09.802Z,101545.94
2018-05-26T21:21:13.107Z,101545.16
2018-05-26T21:24:16.662Z,101540.91
2018-05-26T21:27:19.338Z,101544.27
2018-05-26T21:30:21.901Z,101550.42
2018-05-26T21:33:24.508Z,101552.41
2018-05-26T21:36:29.631Z,101556.47
2018-05-26T21:39:32.206Z,101563.80
2018-05-26T21:42:34.811Z,101555.17
2018-05-26T21:45:40.045Z,101549.84
2018-05-26T21:48:42.609Z,101541.27
2018-05-26T21:51:45.158Z,101546.70
2018-05-26T21:54:47.736Z,101546.22
2018-05-26T21:57:51.672Z,101542.94
2018-05-26T22:00:54.248Z,101543.30
2018-05-26T22:03:56.941Z,101543.65
2018-05-26T22:07:00.205Z,101545.37
2018-05-26T22:10:03.650Z,101551.78
2018-05-26T22:13:06.331Z,101549.23
2018-05-26T22:16:09.032Z,101542.25
2018-05-26T22:19:11.647Z,101544.83
2018-05-26T22:22:14.287Z,101534.74
2018-05-26T22:25:17.829Z,101534.69
2018-05-26T22:28:21.510Z,101533.73
2018-05-26T22:31:24.130Z,101534.74
2018-05-26T22:34:26.754Z,101531.52
2018-05-26T22:37:29.529Z,101532.92
2018-05-26T22:40:32.142Z,101530.98
2018-05-26T22:43:36.898Z,101534.83
2018-05-26T22:46:40.173Z,101536.36
2018-05-26T22:49:43.777Z,101540.47
2018-05-26T22:52:46.364Z,101536.28
2018-05-26T22:55:51.092Z,101537.90
2018-05-26T22:58:53.659Z,101536.20
2018-05-26T23:02:00.145Z,101537.11
2018-05-26T23:05:02.673Z,101537.55
2018-05-26T23:08:05.310Z,101544.01
2018-05-26T23:11:13.158Z,101543.53
2018-05-26T23:14:15.747Z,101543.48
2018-05-26T23:20:27.786Z,101544.30
2018-05-26T23:23:30.307Z,101536.65
2018-05-26T23:26:32.902Z,101533.80
2018-05-26T23:29:36.093Z,101537.25
2018-05-26T23:32:38.699Z,101534.38
2018-05-26T23:35:41.621Z,101539.95
2018-05-26T23:38:44.208Z,101540.14
2018-05-26T23:41:46.791Z,101535.34
2018-05-26T23:44:49.373Z,101539.46
2018-05-26T23:47:51.942Z,101539.23
2018-05-26T23:50:54.583Z,101538.38
2018-05-26T23:53:57.109Z,101532.55
2018-05-26T23:57:00.046Z,101533.65
